OPIS Airport Information

Runway Information
Runway 10L Length 12001 ft width 147 ft Elevation 1735 ft Threshold N/A Heading 101
Runway 28R Length 12001 ft Width 147 ft Elevation 1750 ft Threshold N/A Heading 281
Runway 10R Length 12001 ft width 197 ft Elevation 1732 ft Threshold N/A Heading 100
Runway 28L Length 12001 ft Width 197 ft Elevation 1747 ft Threshold N/A Heading 280
Airport Frequencies
Airport Navaids
Airport Weather Information & NOTAM
ADDS - METARS form results

(0429 UTC 05 December 2022)
Data provider http://aviationweather.gov/metar/data/
 
METAR text: OPIS 050400Z 00000KT 3000 FU NSC 13/07 Q1020 TEMPO 2000 FU/BR
Conditions at: OPIS (ISLAMABAD , PK) observed 0400 UTC 05 December 2022
Temperature: 13.0°C (55°F)
Dewpoint: 7.0°C (45°F) [RH = 67%]
Pressure (altimeter): 30.12 inches Hg (1020.0 mb)
Winds: calm
Visibility: 1.86 miles (2.99 km)
Ceiling: at least 12,000 feet AGL
Clouds: sky clear below 12,000 feet AGL
Weather: FU  (smoke)

METAR text: OPIS 050330Z 05003KT 3000 FU NSC 11/07 Q1019 TEMPO 2000 FU/BR
Conditions at: OPIS (ISLAMABAD , PK) observed 0330 UTC 05 December 2022
Temperature: 11.0°C (52°F)
Dewpoint: 7.0°C (45°F) [RH = 76%]
Pressure (altimeter): 30.09 inches Hg (1019.0 mb)
Winds: from the NE (50 degrees) at 3 MPH (3 knots; 1.5 m/s)
Visibility: 1.86 miles (2.99 km)
Ceiling: at least 12,000 feet AGL
Clouds: sky clear below 12,000 feet AGL
Weather: FU  (smoke)

Forecast for: OPIS (ISLAMABAD , PK)
Text: TAF OPIS 050345Z 0506/0612 37008KT 5000 FU NSC
Forecast period: 0600 UTC 05 December 2022 to 1200 UTC 06 December 2022
Forecast type: FROM: standard forecast or significant change
Visibility: 3 miles (5 km)
Ceiling: unknown
Clouds: missing
Weather: FU  (smoke)
Text: TEMPO 0506/0509 27010G20KT
Forecast period: 0600 to 0900 UTC 05 December 2022
Forecast type: TEMPORARY: The following changes expected for less than half the time period
Winds: from the W (270 degrees) at 12 MPH (10 knots; 5.1 m/s)
gusting to 23 MPH (20 knots; 10.3 m/s)
Visibility: missing
Ceiling: unknown
Clouds: missing
Weather: no significant weather forecast for this period
Text: TEMPO 0518/0603 24002KT 2000 BR
Forecast period: 1800 UTC 05 December 2022 to 0300 UTC 06 December 2022
Forecast type: TEMPORARY: The following changes expected for less than half the time period
Winds: from the WSW (240 degrees) at 2 MPH (2 knots; 1.0 m/s)
Visibility: 1.24 miles (2.00 km)
Ceiling: unknown
Clouds: missing
Weather: BR  (mist)
Text: TEMPO 0606/0609 27010G20KT
Forecast period: 0600 to 0900 UTC 06 December 2022
Forecast type: TEMPORARY: The following changes expected for less than half the time period
Winds: from the W (270 degrees) at 12 MPH (10 knots; 5.1 m/s)
gusting to 23 MPH (20 knots; 10.3 m/s)
Visibility: missing
Ceiling: unknown
Clouds: missing
Weather: no significant weather forecast for this period